KLM525 EHAM-EDDN
Flight info
| Callsign | KLM525 |
|---|---|
| Flight time | 1h 18m |
| Altitude | 35000 |
| Route | EDUPO Z739 MISGO DCT TIVUN DCT TESGA Z719 ETOLU Z723 RITUP/N0405F230 Z723 KOMIB T193 ERTES T194 DODAS DODAS1V |
| Aircraft | A320/M-SDE3FGHIRWY/LB1 |
Departure
| Time | 2026-04-27 12:12 |
|---|---|
| Airport | Amsterdam Airport Schiphol (EHAM) |
Arrival
| Time | 2026-04-27 13:30 |
|---|---|
| Airport | Nuremberg Airport (EDDN) |
| Time | Latitude | Longitude | Altitude | Speed | Heading |
|---|---|---|---|---|---|
| 2026-04-27 11:36 | 52.31230 | 4.76838 | -1 ft | 0 kts | 304° |
| 2026-04-27 11:43 | 52.31228 | 4.76841 | -1 ft | 2 kts | 304° |
| 2026-04-27 11:43 | 52.31219 | 4.76863 | -1 ft | 2 kts | 304° |
| 2026-04-27 11:43 | 52.31210 | 4.76885 | -1 ft | 2 kts | 303° |
| 2026-04-27 11:44 | 52.31201 | 4.76907 | -1 ft | 2 kts | 302° |
| 2026-04-27 11:44 | 52.31193 | 4.76930 | -1 ft | 2 kts | 304° |
| 2026-04-27 11:44 | 52.31184 | 4.76953 | -1 ft | 2 kts | 316° |
| 2026-04-27 11:44 | 52.31170 | 4.76963 | -1 ft | 2 kts | 29° |
| 2026-04-27 11:45 | 52.31166 | 4.76959 | -1 ft | 0 kts | 32° |
| 2026-04-27 11:45 | 52.31168 | 4.76961 | -1 ft | 0 kts | 32° |
| 2026-04-27 11:46 | 52.31195 | 4.76989 | -1 ft | 9 kts | 32° |
| 2026-04-27 11:46 | 52.31232 | 4.77028 | -1 ft | 0 kts | 32° |
| 2026-04-27 11:46 | 52.31234 | 4.77030 | -1 ft | 3 kts | 33° |
| 2026-04-27 11:47 | 52.31264 | 4.77062 | -1 ft | 5 kts | 33° |
| 2026-04-27 11:47 | 52.31294 | 4.77095 | -1 ft | 5 kts | 33° |
| 2026-04-27 11:47 | 52.31330 | 4.77135 | -1 ft | 7 kts | 34° |
| 2026-04-27 11:47 | 52.31372 | 4.77176 | -1 ft | 7 kts | 22° |
| 2026-04-27 11:48 | 52.31419 | 4.77188 | -1 ft | 7 kts | 4° |
| 2026-04-27 11:48 | 52.31469 | 4.77195 | -1 ft | 8 kts | 4° |
| 2026-04-27 11:48 | 52.31537 | 4.77195 | -1 ft | 10 kts | 345° |
| 2026-04-27 11:48 | 52.31568 | 4.77107 | -1 ft | 9 kts | 272° |
| 2026-04-27 11:49 | 52.31566 | 4.76999 | -1 ft | 10 kts | 266° |
| 2026-04-27 11:49 | 52.31562 | 4.76889 | -1 ft | 10 kts | 266° |
| 2026-04-27 11:49 | 52.31558 | 4.76775 | -1 ft | 10 kts | 266° |
| 2026-04-27 11:49 | 52.31552 | 4.76615 | -1 ft | 16 kts | 267° |
| 2026-04-27 11:50 | 52.31546 | 4.76439 | -1 ft | 15 kts | 266° |
| 2026-04-27 11:50 | 52.31540 | 4.76269 | -1 ft | 15 kts | 266° |
| 2026-04-27 11:50 | 52.31534 | 4.76099 | -1 ft | 15 kts | 266° |
| 2026-04-27 11:50 | 52.31528 | 4.75933 | -1 ft | 15 kts | 267° |
| 2026-04-27 11:51 | 52.31522 | 4.75767 | -1 ft | 15 kts | 266° |
| 2026-04-27 11:51 | 52.31516 | 4.75601 | -1 ft | 15 kts | 266° |
| 2026-04-27 11:51 | 52.31505 | 4.75313 | -17 ft | 0 kts | 248° |
| 2026-04-27 11:53 | 52.31230 | 4.76837 | -1 ft | 0 kts | 304° |
| 2026-04-27 11:55 | 52.31224 | 4.76850 | -1 ft | 2 kts | 302° |
| 2026-04-27 11:55 | 52.31215 | 4.76872 | 1 ft | 2 kts | 303° |
| 2026-04-27 11:55 | 52.31206 | 4.76895 | 0 ft | 2 kts | 302° |
| 2026-04-27 11:55 | 52.31198 | 4.76917 | -1 ft | 2 kts | 301° |
| 2026-04-27 11:56 | 52.31189 | 4.76940 | -1 ft | 2 kts | 306° |
| 2026-04-27 11:56 | 52.31179 | 4.76960 | -1 ft | 2 kts | 353° |
| 2026-04-27 11:56 | 52.31165 | 4.76957 | -1 ft | 1 kts | 29° |
| 2026-04-27 11:56 | 52.31163 | 4.76956 | -1 ft | 0 kts | 31° |
| 2026-04-27 11:57 | 52.31175 | 4.76968 | -1 ft | 9 kts | 31° |
| 2026-04-27 11:58 | 52.31248 | 4.77046 | -1 ft | 14 kts | 33° |
| 2026-04-27 11:58 | 52.31332 | 4.77139 | -1 ft | 14 kts | 34° |
| 2026-04-27 11:58 | 52.31416 | 4.77193 | -1 ft | 13 kts | 4° |
| 2026-04-27 11:58 | 52.31482 | 4.77107 | -1 ft | 13 kts | 283° |
| 2026-04-27 11:59 | 52.31479 | 4.76921 | -1 ft | 16 kts | 266° |
| 2026-04-27 11:59 | 52.31473 | 4.76742 | -1 ft | 16 kts | 267° |
| 2026-04-27 11:59 | 52.31467 | 4.76567 | -1 ft | 15 kts | 266° |
| 2026-04-27 11:59 | 52.31461 | 4.76394 | -1 ft | 15 kts | 266° |
| 2026-04-27 12:00 | 52.31455 | 4.76224 | -1 ft | 15 kts | 266° |
| 2026-04-27 12:00 | 52.31449 | 4.76056 | -1 ft | 15 kts | 266° |
| 2026-04-27 12:00 | 52.31443 | 4.75888 | -1 ft | 15 kts | 267° |
| 2026-04-27 12:00 | 52.31436 | 4.75696 | -1 ft | 16 kts | 266° |
| 2026-04-27 12:01 | 52.31431 | 4.75573 | -1 ft | 16 kts | 266° |
| 2026-04-27 12:01 | 52.31425 | 4.75392 | -1 ft | 16 kts | 266° |
| 2026-04-27 12:01 | 52.31419 | 4.75214 | -1 ft | 15 kts | 267° |
| 2026-04-27 12:01 | 52.31413 | 4.75040 | -1 ft | 15 kts | 267° |
| 2026-04-27 12:02 | 52.31408 | 4.74869 | -1 ft | 15 kts | 267° |
| 2026-04-27 12:02 | 52.31402 | 4.74648 | -1 ft | 14 kts | 266° |
| 2026-04-27 12:02 | 52.31398 | 4.74540 | -1 ft | 14 kts | 266° |
| 2026-04-27 12:02 | 52.31391 | 4.74378 | -1 ft | 14 kts | 267° |
| 2026-04-27 12:03 | 52.31448 | 4.74283 | -1 ft | 14 kts | 2° |
| 2026-04-27 12:03 | 52.31556 | 4.74298 | -1 ft | 18 kts | 4° |
| 2026-04-27 12:03 | 52.31684 | 4.74311 | -1 ft | 18 kts | 4° |
| 2026-04-27 12:03 | 52.31825 | 4.74326 | -1 ft | 22 kts | 2° |
| 2026-04-27 12:04 | 52.31967 | 4.74338 | -1 ft | 19 kts | 1° |
| 2026-04-27 12:04 | 52.32031 | 4.74214 | -1 ft | 13 kts | 274° |
| 2026-04-27 12:04 | 52.32036 | 4.74060 | -1 ft | 13 kts | 273° |
| 2026-04-27 12:04 | 52.32042 | 4.73911 | -1 ft | 13 kts | 274° |
| 2026-04-27 12:05 | 52.32047 | 4.73759 | 0 ft | 15 kts | 273° |
| 2026-04-27 12:05 | 52.32052 | 4.73594 | -1 ft | 14 kts | 273° |
| 2026-04-27 12:05 | 52.32064 | 4.73433 | -1 ft | 14 kts | 289° |
| 2026-04-27 12:05 | 52.32121 | 4.73311 | -1 ft | 14 kts | 319° |
| 2026-04-27 12:06 | 52.32195 | 4.73205 | -1 ft | 15 kts | 319° |
| 2026-04-27 12:06 | 52.32277 | 4.73089 | -1 ft | 16 kts | 319° |
| 2026-04-27 12:06 | 52.32361 | 4.72972 | -1 ft | 16 kts | 319° |
| 2026-04-27 12:06 | 52.32446 | 4.72852 | -1 ft | 17 kts | 319° |
| 2026-04-27 12:07 | 52.32535 | 4.72729 | -1 ft | 18 kts | 320° |
| 2026-04-27 12:07 | 52.32624 | 4.72603 | -1 ft | 17 kts | 320° |
| 2026-04-27 12:07 | 52.32708 | 4.72467 | -1 ft | 17 kts | 311° |
| 2026-04-27 12:07 | 52.32791 | 4.72314 | -1 ft | 18 kts | 311° |
| 2026-04-27 12:08 | 52.32878 | 4.72153 | -1 ft | 20 kts | 311° |
| 2026-04-27 12:08 | 52.32964 | 4.71993 | -1 ft | 17 kts | 310° |
| 2026-04-27 12:08 | 52.33041 | 4.71850 | -1 ft | 17 kts | 312° |
| 2026-04-27 12:08 | 52.33118 | 4.71710 | -1 ft | 14 kts | 312° |
| 2026-04-27 12:09 | 52.33147 | 4.71563 | -1 ft | 14 kts | 259° |
| 2026-04-27 12:09 | 52.33090 | 4.71443 | -1 ft | 14 kts | 221° |
| 2026-04-27 12:09 | 52.33020 | 4.71339 | -1 ft | 14 kts | 222° |
| 2026-04-27 12:09 | 52.32956 | 4.71244 | -1 ft | 9 kts | 222° |
| 2026-04-27 12:10 | 52.32908 | 4.71174 | -1 ft | 9 kts | 222° |
| 2026-04-27 12:10 | 52.32866 | 4.71087 | -1 ft | 12 kts | 251° |
| 2026-04-27 12:10 | 52.32867 | 4.70951 | -2 ft | 10 kts | 281° |
| 2026-04-27 12:10 | 52.32905 | 4.70898 | -2 ft | 0 kts | 1° |
| 2026-04-27 12:11 | 52.33253 | 4.70931 | -4 ft | 98 kts | 4° |
| 2026-04-27 12:11 | 52.34189 | 4.71021 | 37 ft | 165 kts | 5° |
| 2026-04-27 12:11 | 52.35429 | 4.71137 | 530 ft | 190 kts | 5° |
| 2026-04-27 12:12 | 52.36842 | 4.71270 | 1209 ft | 216 kts | 4° |
| 2026-04-27 12:12 | 52.38420 | 4.71423 | 2095 ft | 239 kts | 5° |
| 2026-04-27 12:12 | 52.40124 | 4.71586 | 3241 ft | 249 kts | 4° |
| 2026-04-27 12:12 | 52.41854 | 4.71970 | 4504 ft | 255 kts | 14° |
| 2026-04-27 12:13 | 52.43516 | 4.73072 | 5750 ft | 261 kts | 28° |
| 2026-04-27 12:13 | 52.45107 | 4.74544 | 6960 ft | 266 kts | 29° |
| 2026-04-27 12:13 | 52.46588 | 4.76419 | 8078 ft | 274 kts | 46° |
| 2026-04-27 12:13 | 52.47687 | 4.79026 | 9183 ft | 283 kts | 64° |
| 2026-04-27 12:14 | 52.48262 | 4.82156 | 10273 ft | 292 kts | 82° |
| 2026-04-27 12:14 | 52.48440 | 4.85582 | 10945 ft | 315 kts | 89° |
| 2026-04-27 12:14 | 52.48132 | 4.89278 | 11442 ft | 340 kts | 107° |
| 2026-04-27 12:14 | 52.47044 | 4.92792 | 12159 ft | 353 kts | 128° |
| 2026-04-27 12:15 | 52.45265 | 4.95594 | 13065 ft | 358 kts | 146° |
| 2026-04-27 12:15 | 52.43212 | 4.97980 | 14056 ft | 363 kts | 147° |
| 2026-04-27 12:15 | 52.41135 | 5.00373 | 14917 ft | 367 kts | 147° |
| 2026-04-27 12:15 | 52.39028 | 5.02789 | 15761 ft | 372 kts | 147° |
| 2026-04-27 12:16 | 52.36892 | 5.05244 | 16580 ft | 378 kts | 147° |
| 2026-04-27 12:16 | 52.34724 | 5.07754 | 17380 ft | 385 kts | 146° |
| 2026-04-27 12:16 | 52.32680 | 5.10654 | 18165 ft | 394 kts | 136° |
| 2026-04-27 12:16 | 52.30835 | 5.14013 | 18900 ft | 401 kts | 134° |
| 2026-04-27 12:17 | 52.28971 | 5.17426 | 19622 ft | 406 kts | 134° |
| 2026-04-27 12:17 | 52.27077 | 5.20873 | 20347 ft | 410 kts | 134° |
| 2026-04-27 12:17 | 52.25147 | 5.24366 | 21081 ft | 415 kts | 134° |
| 2026-04-27 12:17 | 52.23361 | 5.28095 | 21793 ft | 421 kts | 127° |
| 2026-04-27 12:18 | 52.21666 | 5.32016 | 22493 ft | 426 kts | 127° |
| 2026-04-27 12:18 | 52.19944 | 5.35995 | 23180 ft | 430 kts | 127° |
| 2026-04-27 12:18 | 52.18207 | 5.40003 | 23850 ft | 435 kts | 127° |
| 2026-04-27 12:18 | 52.16451 | 5.44035 | 24371 ft | 440 kts | 128° |
| 2026-04-27 12:19 | 52.14666 | 5.48123 | 24821 ft | 446 kts | 128° |
| 2026-04-27 12:19 | 52.12851 | 5.52264 | 25304 ft | 451 kts | 128° |
| 2026-04-27 12:19 | 52.11028 | 5.56419 | 25793 ft | 455 kts | 128° |
| 2026-04-27 12:19 | 52.09179 | 5.60631 | 26285 ft | 458 kts | 128° |
| 2026-04-27 12:20 | 52.07323 | 5.64859 | 26772 ft | 462 kts | 128° |
| 2026-04-27 12:20 | 52.05369 | 5.69018 | 27256 ft | 463 kts | 134° |
| 2026-04-27 12:20 | 52.03257 | 5.72988 | 27722 ft | 466 kts | 134° |
| 2026-04-27 12:20 | 52.01121 | 5.76973 | 28183 ft | 469 kts | 135° |
| 2026-04-27 12:21 | 51.98967 | 5.80967 | 28645 ft | 472 kts | 135° |
| 2026-04-27 12:21 | 51.96794 | 5.84986 | 29079 ft | 476 kts | 135° |
| 2026-04-27 12:21 | 51.94636 | 5.88993 | 29476 ft | 479 kts | 135° |
| 2026-04-27 12:21 | 51.92413 | 5.93135 | 29875 ft | 482 kts | 135° |
| 2026-04-27 12:22 | 51.90207 | 5.97259 | 30260 ft | 485 kts | 135° |
| 2026-04-27 12:22 | 51.87994 | 6.01393 | 30559 ft | 488 kts | 135° |
| 2026-04-27 12:22 | 51.85759 | 6.05559 | 30860 ft | 491 kts | 135° |
| 2026-04-27 12:22 | 51.83545 | 6.09664 | 31144 ft | 492 kts | 135° |
| 2026-04-27 12:23 | 51.81252 | 6.13892 | 31456 ft | 493 kts | 135° |
| 2026-04-27 12:23 | 51.78994 | 6.18025 | 31845 ft | 491 kts | 135° |
| 2026-04-27 12:23 | 51.76723 | 6.22166 | 32241 ft | 490 kts | 135° |
| 2026-04-27 12:23 | 51.74472 | 6.26263 | 32638 ft | 489 kts | 136° |
| 2026-04-27 12:24 | 51.72240 | 6.30321 | 33036 ft | 488 kts | 136° |
| 2026-04-27 12:24 | 51.69993 | 6.34411 | 33423 ft | 487 kts | 136° |
| 2026-04-27 12:24 | 51.67750 | 6.38490 | 33833 ft | 486 kts | 136° |
| 2026-04-27 12:24 | 51.65509 | 6.42560 | 34243 ft | 485 kts | 136° |
| 2026-04-27 12:25 | 51.63272 | 6.46619 | 34606 ft | 484 kts | 136° |
| 2026-04-27 12:25 | 51.61039 | 6.50661 | 34945 ft | 483 kts | 135° |
| 2026-04-27 12:25 | 51.58805 | 6.54699 | 35208 ft | 483 kts | 135° |
| 2026-04-27 12:26 | 51.54354 | 6.62725 | 35266 ft | 479 kts | 135° |
| 2026-04-27 12:26 | 51.49921 | 6.70701 | 35266 ft | 478 kts | 135° |
| 2026-04-27 12:27 | 51.45491 | 6.78644 | 35267 ft | 478 kts | 136° |
| 2026-04-27 12:27 | 51.41043 | 6.86585 | 35263 ft | 479 kts | 133° |
| 2026-04-27 12:28 | 51.37165 | 6.95309 | 35262 ft | 482 kts | 128° |
| 2026-04-27 12:28 | 51.32895 | 7.03494 | 35245 ft | 478 kts | 135° |
| 2026-04-27 12:29 | 51.28508 | 7.11477 | 35238 ft | 478 kts | 135° |
| 2026-04-27 12:29 | 51.24105 | 7.19418 | 35237 ft | 478 kts | 135° |
| 2026-04-27 12:30 | 51.19699 | 7.27356 | 35233 ft | 478 kts | 135° |
| 2026-04-27 12:30 | 51.15286 | 7.35287 | 35233 ft | 478 kts | 135° |
| 2026-04-27 12:31 | 51.10877 | 7.43199 | 35230 ft | 478 kts | 135° |
| 2026-04-27 12:31 | 51.06461 | 7.51114 | 35216 ft | 478 kts | 135° |
| 2026-04-27 12:32 | 51.02044 | 7.59013 | 35219 ft | 478 kts | 135° |
| 2026-04-27 12:32 | 50.97616 | 7.66880 | 35219 ft | 478 kts | 135° |
| 2026-04-27 12:33 | 50.93175 | 7.74736 | 35219 ft | 478 kts | 135° |
| 2026-04-27 12:33 | 50.88728 | 7.82578 | 35222 ft | 478 kts | 135° |
| 2026-04-27 12:34 | 50.84284 | 7.90414 | 35225 ft | 478 kts | 135° |
| 2026-04-27 12:34 | 50.79838 | 7.98227 | 35226 ft | 478 kts | 135° |
| 2026-04-27 12:35 | 50.75376 | 8.06035 | 35222 ft | 478 kts | 135° |
| 2026-04-27 12:35 | 50.70910 | 8.13810 | 35223 ft | 479 kts | 136° |
| 2026-04-27 12:36 | 50.66430 | 8.21606 | 35224 ft | 479 kts | 135° |
| 2026-04-27 12:36 | 50.61957 | 8.29379 | 35220 ft | 479 kts | 135° |
| 2026-04-27 12:37 | 50.57470 | 8.37136 | 35205 ft | 479 kts | 136° |
| 2026-04-27 12:37 | 50.55230 | 8.40991 | 34900 ft | 477 kts | 136° |
| 2026-04-27 12:37 | 50.52988 | 8.44846 | 33940 ft | 479 kts | 136° |
| 2026-04-27 12:37 | 50.50731 | 8.48721 | 32850 ft | 481 kts | 136° |
| 2026-04-27 12:38 | 50.48470 | 8.52594 | 31760 ft | 483 kts | 135° |
| 2026-04-27 12:38 | 50.46200 | 8.56483 | 30644 ft | 484 kts | 135° |
| 2026-04-27 12:38 | 50.43914 | 8.60396 | 29358 ft | 487 kts | 135° |
| 2026-04-27 12:38 | 50.41623 | 8.64310 | 28154 ft | 486 kts | 135° |
| 2026-04-27 12:39 | 50.39362 | 8.68174 | 27260 ft | 479 kts | 135° |
| 2026-04-27 12:39 | 50.37117 | 8.72007 | 26393 ft | 473 kts | 135° |
| 2026-04-27 12:39 | 50.34904 | 8.75778 | 25622 ft | 469 kts | 135° |
| 2026-04-27 12:39 | 50.32696 | 8.79528 | 25345 ft | 468 kts | 135° |
| 2026-04-27 12:40 | 50.30499 | 8.83249 | 25181 ft | 467 kts | 135° |
| 2026-04-27 12:40 | 50.28358 | 8.87084 | 25235 ft | 469 kts | 129° |
| 2026-04-27 12:40 | 50.26593 | 8.91382 | 25234 ft | 471 kts | 119° |
| 2026-04-27 12:40 | 50.25292 | 8.96089 | 25231 ft | 472 kts | 109° |
| 2026-04-27 12:41 | 50.24240 | 9.00943 | 25227 ft | 472 kts | 109° |
| 2026-04-27 12:41 | 50.23185 | 9.05809 | 25228 ft | 472 kts | 109° |
| 2026-04-27 12:41 | 50.22487 | 9.09014 | 25228 ft | 472 kts | 109° |
| 2026-04-27 12:41 | 50.21078 | 9.15452 | 25227 ft | 472 kts | 109° |
| 2026-04-27 12:42 | 50.20360 | 9.18721 | 25232 ft | 472 kts | 109° |
| 2026-04-27 12:42 | 50.19293 | 9.23564 | 25229 ft | 473 kts | 109° |
| 2026-04-27 12:42 | 50.18318 | 9.30180 | 25232 ft | 473 kts | 96° |
| 2026-04-27 12:42 | 50.18180 | 9.35288 | 25231 ft | 471 kts | 87° |
| 2026-04-27 12:43 | 50.18263 | 9.40395 | 25234 ft | 471 kts | 87° |
| 2026-04-27 12:43 | 50.18336 | 9.45506 | 25231 ft | 471 kts | 87° |
| 2026-04-27 12:43 | 50.18382 | 9.48966 | 25234 ft | 472 kts | 87° |
| 2026-04-27 12:43 | 50.18447 | 9.54076 | 25234 ft | 471 kts | 88° |
| 2026-04-27 12:44 | 50.18507 | 9.59201 | 25235 ft | 471 kts | 88° |
| 2026-04-27 12:44 | 50.18564 | 9.64310 | 25235 ft | 471 kts | 88° |
| 2026-04-27 12:44 | 50.18616 | 9.69413 | 25192 ft | 472 kts | 88° |
| 2026-04-27 12:44 | 50.18667 | 9.74535 | 24950 ft | 470 kts | 88° |
| 2026-04-27 12:45 | 50.18716 | 9.79615 | 24713 ft | 468 kts | 88° |
| 2026-04-27 12:45 | 50.18760 | 9.84616 | 24483 ft | 466 kts | 88° |
| 2026-04-27 12:45 | 50.18802 | 9.89659 | 24250 ft | 464 kts | 88° |
| 2026-04-27 12:45 | 50.18771 | 9.94695 | 24017 ft | 464 kts | 93° |
| 2026-04-27 12:46 | 50.18257 | 9.99662 | 23779 ft | 463 kts | 104° |
| 2026-04-27 12:46 | 50.17206 | 10.04397 | 23503 ft | 461 kts | 115° |
| 2026-04-27 12:46 | 50.15662 | 10.08754 | 23232 ft | 458 kts | 125° |
| 2026-04-27 12:46 | 50.13703 | 10.12629 | 22968 ft | 455 kts | 132° |
| 2026-04-27 12:47 | 50.11648 | 10.16375 | 22702 ft | 452 kts | 132° |
| 2026-04-27 12:47 | 50.09614 | 10.20088 | 22429 ft | 450 kts | 132° |
| 2026-04-27 12:47 | 50.07694 | 10.23921 | 22170 ft | 448 kts | 124° |
| 2026-04-27 12:47 | 50.06156 | 10.28129 | 21903 ft | 447 kts | 116° |
| 2026-04-27 12:48 | 50.04834 | 10.32488 | 21613 ft | 445 kts | 116° |
| 2026-04-27 12:48 | 50.03512 | 10.36815 | 21179 ft | 441 kts | 116° |
| 2026-04-27 12:48 | 50.02197 | 10.41108 | 20792 ft | 438 kts | 116° |
| 2026-04-27 12:48 | 50.00888 | 10.45363 | 20372 ft | 434 kts | 116° |
| 2026-04-27 12:49 | 49.99586 | 10.49585 | 19966 ft | 431 kts | 116° |
| 2026-04-27 12:49 | 49.98148 | 10.53636 | 19589 ft | 426 kts | 124° |
| 2026-04-27 12:49 | 49.96393 | 10.57290 | 19206 ft | 420 kts | 132° |
| 2026-04-27 12:49 | 49.94360 | 10.60521 | 18818 ft | 415 kts | 140° |
| 2026-04-27 12:50 | 49.92109 | 10.63266 | 18459 ft | 410 kts | 148° |
| 2026-04-27 12:50 | 49.89667 | 10.65513 | 18079 ft | 406 kts | 155° |
| 2026-04-27 12:50 | 49.87088 | 10.67232 | 17702 ft | 401 kts | 163° |
| 2026-04-27 12:50 | 49.84452 | 10.68624 | 17315 ft | 399 kts | 163° |
| 2026-04-27 12:51 | 49.81819 | 10.69924 | 16922 ft | 396 kts | 167° |
| 2026-04-27 12:51 | 49.79129 | 10.70758 | 16537 ft | 392 kts | 174° |
| 2026-04-27 12:51 | 49.76434 | 10.71221 | 16118 ft | 389 kts | 176° |
| 2026-04-27 12:51 | 49.73751 | 10.71707 | 15723 ft | 388 kts | 173° |
| 2026-04-27 12:52 | 49.71136 | 10.72766 | 15342 ft | 389 kts | 161° |
| 2026-04-27 12:52 | 49.68697 | 10.74569 | 14989 ft | 389 kts | 150° |
| 2026-04-27 12:52 | 49.66527 | 10.77054 | 14646 ft | 389 kts | 139° |
| 2026-04-27 12:52 | 49.64708 | 10.80095 | 14265 ft | 388 kts | 127° |
| 2026-04-27 12:53 | 49.62262 | 10.87379 | 13499 ft | 383 kts | 108° |
| 2026-04-27 12:53 | 49.61585 | 10.91324 | 13112 ft | 380 kts | 100° |
| 2026-04-27 12:53 | 49.61183 | 10.95334 | 12763 ft | 377 kts | 97° |
| 2026-04-27 12:54 | 49.60797 | 10.99317 | 12454 ft | 374 kts | 98° |
| 2026-04-27 12:54 | 49.60413 | 11.03273 | 12057 ft | 372 kts | 97° |
| 2026-04-27 12:54 | 49.60031 | 11.07199 | 11657 ft | 369 kts | 98° |
| 2026-04-27 12:54 | 49.59649 | 11.11085 | 11261 ft | 366 kts | 98° |
| 2026-04-27 12:55 | 49.59266 | 11.14949 | 10864 ft | 363 kts | 98° |
| 2026-04-27 12:55 | 49.58885 | 11.18774 | 10516 ft | 360 kts | 98° |
| 2026-04-27 12:55 | 49.58507 | 11.22572 | 10173 ft | 356 kts | 98° |
| 2026-04-27 12:55 | 49.58136 | 11.26267 | 9800 ft | 341 kts | 98° |
| 2026-04-27 12:56 | 49.57778 | 11.29815 | 9430 ft | 329 kts | 97° |
| 2026-04-27 12:56 | 49.57434 | 11.33241 | 9113 ft | 318 kts | 97° |
| 2026-04-27 12:56 | 49.57100 | 11.36550 | 8765 ft | 308 kts | 98° |
| 2026-04-27 12:56 | 49.56777 | 11.39761 | 8437 ft | 299 kts | 98° |
| 2026-04-27 12:57 | 49.56462 | 11.42885 | 8107 ft | 292 kts | 97° |
| 2026-04-27 12:57 | 49.56154 | 11.45939 | 7781 ft | 285 kts | 97° |
| 2026-04-27 12:57 | 49.55850 | 11.48925 | 7448 ft | 280 kts | 97° |
| 2026-04-27 12:57 | 49.55548 | 11.51873 | 7067 ft | 277 kts | 97° |
| 2026-04-27 12:58 | 49.55250 | 11.54796 | 6615 ft | 275 kts | 98° |
| 2026-04-27 12:58 | 49.54953 | 11.57695 | 6173 ft | 273 kts | 98° |
| 2026-04-27 12:58 | 49.54421 | 11.60476 | 5726 ft | 270 kts | 117° |
| 2026-04-27 12:58 | 49.53250 | 11.62666 | 5480 ft | 268 kts | 141° |
| 2026-04-27 12:59 | 49.51592 | 11.64001 | 5347 ft | 269 kts | 165° |
| 2026-04-27 12:59 | 49.49736 | 11.64269 | 5222 ft | 270 kts | 185° |
| 2026-04-27 12:59 | 49.47940 | 11.63510 | 5089 ft | 269 kts | 206° |
| 2026-04-27 12:59 | 49.46438 | 11.61819 | 4988 ft | 268 kts | 227° |
| 2026-04-27 13:00 | 49.45433 | 11.59427 | 4995 ft | 263 kts | 248° |
| 2026-04-27 13:00 | 49.45044 | 11.56808 | 4998 ft | 242 kts | 268° |
| 2026-04-27 13:00 | 49.45175 | 11.54337 | 5005 ft | 224 kts | 279° |
| 2026-04-27 13:00 | 49.45413 | 11.52048 | 5002 ft | 210 kts | 280° |
| 2026-04-27 13:01 | 49.45636 | 11.49894 | 4994 ft | 197 kts | 279° |
| 2026-04-27 13:01 | 49.45840 | 11.47898 | 4993 ft | 183 kts | 279° |
| 2026-04-27 13:01 | 49.46036 | 11.45985 | 4993 ft | 180 kts | 279° |
| 2026-04-27 13:01 | 49.46231 | 11.44083 | 4994 ft | 180 kts | 279° |
| 2026-04-27 13:02 | 49.46424 | 11.42184 | 5000 ft | 180 kts | 279° |
| 2026-04-27 13:02 | 49.46617 | 11.40285 | 4941 ft | 180 kts | 279° |
| 2026-04-27 13:02 | 49.46810 | 11.38385 | 4747 ft | 179 kts | 279° |
| 2026-04-27 13:02 | 49.47001 | 11.36498 | 4528 ft | 179 kts | 279° |
| 2026-04-27 13:03 | 49.47192 | 11.34616 | 4297 ft | 178 kts | 279° |
| 2026-04-27 13:03 | 49.47381 | 11.32738 | 4040 ft | 177 kts | 279° |
| 2026-04-27 13:03 | 49.47570 | 11.30868 | 3814 ft | 177 kts | 279° |
| 2026-04-27 13:03 | 49.47757 | 11.29008 | 3579 ft | 176 kts | 279° |
| 2026-04-27 13:04 | 49.47944 | 11.27150 | 3349 ft | 175 kts | 279° |
| 2026-04-27 13:04 | 49.48129 | 11.25304 | 3118 ft | 175 kts | 279° |
| 2026-04-27 13:04 | 49.48313 | 11.23467 | 2868 ft | 173 kts | 280° |
| 2026-04-27 13:04 | 49.48497 | 11.21636 | 2637 ft | 173 kts | 280° |
| 2026-04-27 13:05 | 49.48678 | 11.19814 | 2400 ft | 172 kts | 280° |
| 2026-04-27 13:05 | 49.48860 | 11.17996 | 2174 ft | 172 kts | 279° |
| 2026-04-27 13:05 | 49.49040 | 11.16183 | 1942 ft | 171 kts | 279° |
| 2026-04-27 13:05 | 49.49218 | 11.14387 | 1709 ft | 169 kts | 279° |
| 2026-04-27 13:06 | 49.49397 | 11.12602 | 1478 ft | 167 kts | 279° |
| 2026-04-27 13:06 | 49.49573 | 11.10857 | 1243 ft | 163 kts | 279° |
| 2026-04-27 13:06 | 49.49740 | 11.09100 | 1109 ft | 156 kts | 282° |
| 2026-04-27 13:06 | 49.50101 | 11.07648 | 2214 ft | 151 kts | 295° |
| 2026-04-27 13:07 | 49.50580 | 11.06069 | 3310 ft | 178 kts | 296° |
| 2026-04-27 13:07 | 49.51108 | 11.04069 | 3724 ft | 224 kts | 290° |
| 2026-04-27 13:07 | 49.51638 | 11.01754 | 3805 ft | 235 kts | 289° |
| 2026-04-27 13:07 | 49.52152 | 10.99464 | 3803 ft | 218 kts | 289° |
| 2026-04-27 13:08 | 49.52626 | 10.97339 | 3919 ft | 201 kts | 289° |
| 2026-04-27 13:08 | 49.53074 | 10.95318 | 4637 ft | 198 kts | 289° |
| 2026-04-27 13:08 | 49.53444 | 10.93257 | 4971 ft | 199 kts | 274° |
| 2026-04-27 13:08 | 49.53340 | 10.91158 | 5007 ft | 196 kts | 263° |
| 2026-04-27 13:09 | 49.53174 | 10.89073 | 5013 ft | 196 kts | 264° |
| 2026-04-27 13:09 | 49.53009 | 10.86998 | 5012 ft | 196 kts | 263° |
| 2026-04-27 13:09 | 49.52842 | 10.84920 | 5012 ft | 195 kts | 263° |
| 2026-04-27 13:09 | 49.52674 | 10.82845 | 5015 ft | 196 kts | 263° |
| 2026-04-27 13:10 | 49.52509 | 10.80770 | 5010 ft | 196 kts | 266° |
| 2026-04-27 13:10 | 49.52708 | 10.78729 | 5019 ft | 194 kts | 295° |
| 2026-04-27 13:10 | 49.53533 | 10.77132 | 5019 ft | 192 kts | 326° |
| 2026-04-27 13:10 | 49.54766 | 10.76407 | 5021 ft | 192 kts | 355° |
| 2026-04-27 13:11 | 49.56066 | 10.76737 | 5022 ft | 192 kts | 26° |
| 2026-04-27 13:11 | 49.57079 | 10.78036 | 5025 ft | 192 kts | 56° |
| 2026-04-27 13:11 | 49.57527 | 10.79953 | 5021 ft | 193 kts | 86° |
| 2026-04-27 13:11 | 49.57281 | 10.81963 | 5018 ft | 193 kts | 115° |
| 2026-04-27 13:12 | 49.56674 | 10.83819 | 5021 ft | 194 kts | 116° |
| 2026-04-27 13:12 | 49.56072 | 10.85670 | 5013 ft | 193 kts | 116° |
| 2026-04-27 13:12 | 49.55472 | 10.87520 | 5014 ft | 193 kts | 116° |
| 2026-04-27 13:12 | 49.54872 | 10.89369 | 5012 ft | 193 kts | 116° |
| 2026-04-27 13:13 | 49.54272 | 10.91219 | 5014 ft | 193 kts | 116° |
| 2026-04-27 13:13 | 49.53672 | 10.93069 | 5015 ft | 193 kts | 116° |
| 2026-04-27 13:13 | 49.53071 | 10.94915 | 5010 ft | 193 kts | 116° |
| 2026-04-27 13:13 | 49.52470 | 10.96764 | 5013 ft | 193 kts | 116° |
| 2026-04-27 13:14 | 49.51872 | 10.98614 | 5013 ft | 193 kts | 116° |
| 2026-04-27 13:14 | 49.51273 | 11.00461 | 5013 ft | 193 kts | 116° |
| 2026-04-27 13:14 | 49.50674 | 11.02309 | 5010 ft | 193 kts | 116° |
| 2026-04-27 13:14 | 49.50075 | 11.04157 | 5010 ft | 193 kts | 116° |
| 2026-04-27 13:15 | 49.49557 | 11.06050 | 5008 ft | 192 kts | 99° |
| 2026-04-27 13:15 | 49.49487 | 11.08092 | 5010 ft | 192 kts | 88° |
| 2026-04-27 13:15 | 49.49548 | 11.10148 | 5012 ft | 193 kts | 85° |
| 2026-04-27 13:15 | 49.49658 | 11.12194 | 5008 ft | 192 kts | 84° |
| 2026-04-27 13:16 | 49.49774 | 11.14238 | 5011 ft | 192 kts | 84° |
| 2026-04-27 13:16 | 49.49952 | 11.16268 | 5007 ft | 191 kts | 79° |
| 2026-04-27 13:16 | 49.50197 | 11.18282 | 5010 ft | 192 kts | 78° |
| 2026-04-27 13:16 | 49.50453 | 11.20294 | 5008 ft | 192 kts | 78° |
| 2026-04-27 13:17 | 49.50708 | 11.22301 | 5012 ft | 191 kts | 78° |
| 2026-04-27 13:17 | 49.50962 | 11.24312 | 5012 ft | 191 kts | 78° |
| 2026-04-27 13:17 | 49.51214 | 11.26321 | 5013 ft | 192 kts | 81° |
| 2026-04-27 13:17 | 49.51351 | 11.28363 | 5018 ft | 192 kts | 85° |
| 2026-04-27 13:18 | 49.51431 | 11.30420 | 5015 ft | 192 kts | 86° |
| 2026-04-27 13:18 | 49.51501 | 11.32475 | 5017 ft | 192 kts | 86° |
| 2026-04-27 13:18 | 49.51581 | 11.34533 | 5019 ft | 192 kts | 84° |
| 2026-04-27 13:18 | 49.51715 | 11.36580 | 5023 ft | 193 kts | 84° |
| 2026-04-27 13:19 | 49.51854 | 11.38628 | 5019 ft | 192 kts | 83° |
| 2026-04-27 13:19 | 49.51993 | 11.40676 | 5018 ft | 192 kts | 83° |
| 2026-04-27 13:19 | 49.52130 | 11.42724 | 5023 ft | 192 kts | 84° |
| 2026-04-27 13:19 | 49.52268 | 11.44771 | 5029 ft | 193 kts | 83° |
| 2026-04-27 13:20 | 49.52408 | 11.46824 | 5018 ft | 192 kts | 83° |
| 2026-04-27 13:20 | 49.52548 | 11.48865 | 5021 ft | 192 kts | 82° |
| 2026-04-27 13:20 | 49.52889 | 11.50845 | 5021 ft | 192 kts | 76° |
| 2026-04-27 13:20 | 49.52872 | 11.52879 | 5015 ft | 192 kts | 107° |
| 2026-04-27 13:21 | 49.52153 | 11.54587 | 5022 ft | 193 kts | 140° |
| 2026-04-27 13:21 | 49.51066 | 11.55760 | 5029 ft | 194 kts | 145° |
| 2026-04-27 13:21 | 49.49951 | 11.56929 | 5022 ft | 194 kts | 145° |
| 2026-04-27 13:21 | 49.48833 | 11.58104 | 5022 ft | 195 kts | 145° |
| 2026-04-27 13:22 | 49.47644 | 11.59051 | 5012 ft | 194 kts | 169° |
| 2026-04-27 13:22 | 49.46323 | 11.58846 | 5000 ft | 192 kts | 205° |
| 2026-04-27 13:22 | 49.45334 | 11.57541 | 4683 ft | 190 kts | 241° |
| 2026-04-27 13:22 | 49.45045 | 11.55615 | 4252 ft | 188 kts | 277° |
| 2026-04-27 13:23 | 49.45242 | 11.53634 | 4022 ft | 187 kts | 280° |
| 2026-04-27 13:23 | 49.45454 | 11.51647 | 4022 ft | 190 kts | 279° |
| 2026-04-27 13:23 | 49.45662 | 11.49635 | 4019 ft | 190 kts | 279° |
| 2026-04-27 13:23 | 49.45869 | 11.47618 | 4021 ft | 191 kts | 279° |
| 2026-04-27 13:24 | 49.46075 | 11.45610 | 4020 ft | 190 kts | 279° |
| 2026-04-27 13:24 | 49.46280 | 11.43596 | 4020 ft | 190 kts | 279° |
| 2026-04-27 13:24 | 49.46485 | 11.41584 | 4028 ft | 191 kts | 280° |
| 2026-04-27 13:24 | 49.46689 | 11.39573 | 4025 ft | 191 kts | 279° |
| 2026-04-27 13:25 | 49.46894 | 11.37558 | 4019 ft | 190 kts | 279° |
| 2026-04-27 13:25 | 49.47098 | 11.35542 | 4016 ft | 191 kts | 279° |
| 2026-04-27 13:25 | 49.47301 | 11.33530 | 4018 ft | 191 kts | 279° |
| 2026-04-27 13:25 | 49.47502 | 11.31541 | 3849 ft | 183 kts | 279° |
| 2026-04-27 13:26 | 49.47629 | 11.30284 | 3742 ft | 174 kts | 279° |
| 2026-04-27 13:26 | 49.47864 | 11.27942 | 3443 ft | 161 kts | 279° |
| 2026-04-27 13:26 | 49.47977 | 11.26815 | 3293 ft | 155 kts | 280° |
| 2026-04-27 13:26 | 49.48185 | 11.24740 | 3033 ft | 144 kts | 280° |
| 2026-04-27 13:27 | 49.48287 | 11.23724 | 2905 ft | 141 kts | 280° |
| 2026-04-27 13:27 | 49.48431 | 11.22279 | 2718 ft | 134 kts | 280° |
| 2026-04-27 13:27 | 49.48570 | 11.20887 | 2538 ft | 130 kts | 281° |
| 2026-04-27 13:27 | 49.48706 | 11.19526 | 2358 ft | 127 kts | 281° |
| 2026-04-27 13:28 | 49.48841 | 11.18175 | 2211 ft | 129 kts | 280° |
| 2026-04-27 13:28 | 49.48976 | 11.16819 | 2029 ft | 128 kts | 280° |
| 2026-04-27 13:28 | 49.49110 | 11.15478 | 1862 ft | 123 kts | 280° |
| 2026-04-27 13:28 | 49.49238 | 11.14190 | 1696 ft | 121 kts | 279° |
| 2026-04-27 13:29 | 49.49364 | 11.12913 | 1530 ft | 121 kts | 277° |
| 2026-04-27 13:29 | 49.49489 | 11.11657 | 1369 ft | 118 kts | 278° |
| 2026-04-27 13:29 | 49.49611 | 11.10419 | 1214 ft | 117 kts | 278° |
| 2026-04-27 13:29 | 49.49739 | 11.09202 | 1053 ft | 110 kts | 277° |
| 2026-04-27 13:30 | 49.49832 | 11.08232 | 1025 ft | 64 kts | 277° |
| 2026-04-27 13:30 | 49.49870 | 11.07808 | 1034 ft | 21 kts | 279° |
| 2026-04-27 13:30 | 49.49847 | 11.07650 | 1032 ft | 14 kts | 197° |
| 2026-04-27 13:30 | 49.49789 | 11.07675 | 1032 ft | 7 kts | 152° |
| 2026-04-27 13:31 | 49.49756 | 11.07702 | 1033 ft | 0 kts | 152° |
| 2026-04-27 13:31 | 49.49750 | 11.07707 | 1033 ft | 2 kts | 152° |
| 2026-04-27 13:31 | 49.49735 | 11.07719 | 1033 ft | 3 kts | 152° |
| 2026-04-27 13:32 | 49.49715 | 11.07736 | 1033 ft | 4 kts | 152° |
| 2026-04-27 13:32 | 49.49683 | 11.07761 | 1032 ft | 6 kts | 152° |
| 2026-04-27 13:32 | 49.49636 | 11.07770 | 1031 ft | 8 kts | 185° |
| 2026-04-27 13:32 | 49.49597 | 11.07725 | 1030 ft | 6 kts | 250° |
| 2026-04-27 13:33 | 49.49598 | 11.07648 | 1030 ft | 8 kts | 276° |
| 2026-04-27 13:33 | 49.49598 | 11.07639 | 1030 ft | 0 kts | 270° |
| 2026-04-27 13:34 | 49.49599 | 11.07623 | 1029 ft | 5 kts | 278° |
| 2026-04-27 13:34 | 49.49597 | 11.07540 | 1026 ft | 8 kts | 239° |
| 2026-04-27 13:34 | 49.49564 | 11.07522 | 1028 ft | 5 kts | 188° |
| 2026-04-27 13:35 | 49.49551 | 11.07518 | 1027 ft | 3 kts | 190° |
| 2026-04-27 13:35 | 49.49541 | 11.07516 | 1027 ft | 0 kts | 188° |